Odessa, Ukraine
Current Conditions -  °F | °C
As of 6:00 PM on Friday 19 Dec 2014 (Local Time) from UKOO Reporting Station
Haze Haze  
Wind Chill: 29°   Ceiling: 300
Heat Index: 36°   Visibility: 1.5mi
Dew Point: 34°   Wind: 9mph
Humidity: 93%   Direction: 230°SW
Pressure: 30.06"   Gusts: NA
Location:  46.47°N, 30.74°E
Report Text: UKOO 191500Z 23004MPS 2400 BR OVC003 02/01 Q1018 16090060 TEMPO 0300 FG VV002
Loading
Personal Weather Stations






























Interactive Weather Map New forecast layout! Learn more

10-Day Weather Forecast

Advertisements
Track Severe Weather on mobile